createdAt,value
2022-08-05T00:02:22.027Z,27.10
2022-08-05T00:04:52.895Z,27.00
2022-08-05T00:07:58.834Z,27.00
2022-08-05T00:10:10.672Z,27.00
2022-08-05T00:12:56.053Z,27.00
2022-08-05T00:15:58.012Z,27.00
2022-08-05T00:18:19.855Z,26.90
2022-08-05T00:20:50.796Z,26.80
2022-08-05T00:23:31.054Z,26.80
2022-08-05T00:26:06.139Z,26.80
2022-08-05T00:28:33.348Z,26.80
2022-08-05T00:31:04.140Z,26.80
2022-08-05T00:34:53.628Z,26.80
2022-08-05T00:37:11.940Z,26.80
2022-08-05T00:39:13.949Z,26.70
2022-08-05T00:41:51.449Z,26.70
2022-08-05T00:44:19.159Z,26.70
2022-08-05T00:46:47.844Z,26.60
2022-08-05T00:49:21.209Z,26.60
2022-08-05T00:51:50.586Z,26.60
2022-08-05T00:54:18.275Z,26.60
2022-08-05T00:56:51.330Z,26.60
2022-08-05T00:59:18.877Z,26.50
2022-08-05T01:01:48.949Z,26.40
2022-08-05T01:04:19.895Z,26.40
2022-08-05T01:06:49.155Z,26.40
2022-08-05T01:09:20.269Z,26.40
2022-08-05T01:11:51.678Z,26.40
2022-08-05T01:14:33.529Z,26.40
2022-08-05T01:17:12.364Z,26.40
2022-08-05T01:20:01.790Z,26.30
2022-08-05T01:23:13.587Z,26.20
2022-08-05T01:26:10.559Z,26.20
2022-08-05T01:28:57.253Z,26.20
2022-08-05T01:31:44.706Z,26.10
2022-08-05T01:34:14.820Z,26.20
2022-08-05T01:36:49.291Z,26.20
2022-08-05T01:39:46.421Z,26.20
2022-08-05T01:42:07.257Z,26.20
2022-08-05T01:44:38.235Z,26.30
2022-08-05T01:47:05.543Z,26.30
2022-08-05T01:50:00.265Z,26.30
2022-08-05T01:52:23.909Z,26.30
2022-08-05T01:54:57.907Z,26.30
2022-08-05T01:58:29.378Z,26.30
2022-08-05T02:00:38.657Z,26.40
2022-08-05T02:03:24.643Z,26.30
2022-08-05T02:06:03.717Z,26.30
2022-08-05T02:08:58.549Z,26.40
2022-08-05T02:11:33.135Z,26.40
2022-08-05T02:14:00.565Z,26.40
2022-08-05T02:16:30.352Z,26.30
2022-08-05T02:19:07.544Z,26.30
2022-08-05T02:21:47.026Z,26.20
2022-08-05T02:24:23.025Z,26.20
2022-08-05T02:26:56.323Z,26.10
2022-08-05T02:29:59.423Z,26.10
2022-08-05T02:32:24.271Z,26.20
2022-08-05T02:35:13.665Z,26.20
2022-08-05T02:37:47.902Z,26.30
2022-08-05T02:40:23.013Z,26.30
2022-08-05T02:42:54.149Z,26.30
2022-08-05T02:45:23.812Z,26.20
2022-08-05T02:48:06.537Z,26.20
2022-08-05T02:50:38.875Z,26.20
2022-08-05T02:53:19.106Z,26.20
2022-08-05T02:55:54.796Z,26.20
2022-08-05T02:58:30.057Z,26.30
2022-08-05T03:01:01.978Z,26.30
2022-08-05T03:03:34.070Z,26.30
2022-08-05T03:06:56.937Z,26.30
2022-08-05T03:09:06.593Z,26.30
2022-08-05T03:11:55.096Z,26.30
2022-08-05T03:14:21.824Z,26.30
2022-08-05T03:16:48.963Z,26.30
2022-08-05T03:19:33.864Z,26.30
2022-08-05T03:22:05.107Z,26.30
2022-08-05T03:24:46.923Z,26.30
2022-08-05T03:27:14.355Z,26.30
2022-08-05T03:29:45.424Z,26.30
2022-08-05T03:32:30.972Z,26.20
2022-08-05T03:34:58.717Z,26.20
2022-08-05T03:37:25.952Z,26.20
2022-08-05T03:39:59.230Z,26.20
2022-08-05T03:42:28.893Z,26.20
2022-08-05T03:44:57.077Z,26.30
2022-08-05T03:47:24.417Z,26.40
2022-08-05T03:49:52.422Z,26.40
2022-08-05T03:52:49.156Z,26.40
2022-08-05T03:56:04.251Z,26.30
2022-08-05T03:58:28.944Z,26.30
2022-08-05T04:00:57.919Z,26.30
2022-08-05T04:03:29.388Z,26.30
2022-08-05T04:05:57.720Z,26.30
2022-08-05T04:08:30.074Z,26.30
2022-08-05T04:11:05.291Z,26.30
2022-08-05T04:13:50.920Z,26.30
2022-08-05T04:16:24.075Z,26.20
2022-08-05T04:18:54.241Z,26.20
2022-08-05T04:22:10.284Z,26.20
2022-08-05T04:24:19.473Z,26.20
2022-08-05T04:26:50.050Z,26.30
2022-08-05T04:29:17.046Z,26.40
2022-08-05T04:31:43.921Z,26.40
2022-08-05T04:34:33.117Z,26.40
2022-08-05T04:36:57.948Z,26.30
2022-08-05T04:39:25.000Z,26.20
2022-08-05T04:41:54.590Z,26.20
2022-08-05T04:44:30.066Z,26.20
2022-08-05T04:47:09.757Z,26.20
2022-08-05T04:50:02.977Z,26.20
2022-08-05T04:52:28.145Z,26.30
2022-08-05T04:54:57.405Z,26.30
2022-08-05T04:57:28.781Z,26.20
2022-08-05T04:59:57.208Z,26.30
2022-08-05T05:02:37.196Z,26.30
2022-08-05T05:05:26.296Z,26.30
2022-08-05T05:07:56.490Z,26.30
2022-08-05T05:10:29.703Z,26.30
2022-08-05T05:12:56.960Z,26.30
2022-08-05T05:15:54.374Z,26.30
2022-08-05T05:18:31.054Z,26.40
2022-08-05T05:21:01.765Z,26.30
2022-08-05T05:23:39.213Z,26.30
2022-08-05T05:26:15.590Z,26.20
2022-08-05T05:28:45.099Z,26.20
2022-08-05T05:31:12.489Z,26.20
2022-08-05T05:33:59.651Z,26.10
2022-08-05T05:36:28.817Z,26.20
2022-08-05T05:38:57.387Z,26.30
2022-08-05T05:41:24.504Z,26.40
2022-08-05T05:43:58.493Z,26.40
2022-08-05T05:46:27.293Z,26.30
2022-08-05T05:48:54.633Z,26.30
2022-08-05T05:51:23.373Z,26.30
2022-08-05T05:53:57.226Z,26.30
2022-08-05T05:56:33.370Z,26.30
2022-08-05T05:59:06.919Z,25.90
2022-08-05T06:01:37.783Z,26.30
2022-08-05T06:04:11.420Z,26.40
2022-08-05T06:06:47.317Z,26.40
2022-08-05T06:09:25.765Z,26.40
2022-08-05T06:11:59.177Z,26.40
2022-08-05T06:14:27.880Z,26.40
2022-08-05T06:16:57.091Z,26.50
2022-08-05T06:19:33.915Z,26.50
2022-08-05T06:22:06.395Z,26.50
2022-08-05T06:24:34.775Z,26.60
2022-08-05T06:27:02.320Z,26.60
2022-08-05T06:29:49.660Z,26.60
2022-08-05T06:32:24.978Z,26.60
2022-08-05T06:34:58.767Z,26.60
2022-08-05T06:37:56.894Z,26.60
2022-08-05T06:40:21.057Z,26.70
2022-08-05T06:42:52.168Z,26.70
2022-08-05T06:46:02.844Z,26.80
2022-08-05T06:48:52.920Z,26.80
2022-08-05T06:51:03.211Z,27.00
2022-08-05T06:53:39.351Z,27.10
2022-08-05T06:56:06.750Z,27.10
2022-08-05T06:58:53.148Z,27.20
2022-08-05T07:01:20.764Z,27.30
2022-08-05T07:03:48.151Z,27.40
2022-08-05T07:06:15.529Z,27.60
2022-08-05T07:08:47.609Z,27.70
2022-08-05T07:11:25.561Z,27.90
2022-08-05T07:14:20.001Z,28.10
2022-08-05T07:17:59.398Z,28.30
2022-08-05T07:22:30.492Z,28.70
2022-08-05T07:25:22.394Z,29.00
2022-08-05T07:27:57.134Z,29.10
2022-08-05T07:30:32.269Z,29.30
2022-08-05T07:33:05.442Z,29.50
2022-08-05T07:36:02.709Z,29.60
2022-08-05T07:38:33.695Z,29.80
2022-08-05T07:41:35.092Z,29.90
2022-08-05T07:44:04.513Z,29.90
2022-08-05T07:46:33.775Z,29.80
2022-08-05T07:49:05.944Z,29.80
2022-08-05T07:51:49.002Z,29.80
2022-08-05T07:54:23.147Z,29.80
2022-08-05T07:57:14.584Z,29.80
2022-08-05T07:59:41.205Z,29.60
2022-08-05T08:02:15.989Z,29.60
2022-08-05T08:04:46.480Z,29.60
2022-08-05T08:07:15.006Z,29.80
2022-08-05T08:09:42.784Z,29.80
2022-08-05T08:12:29.677Z,29.90
2022-08-05T08:14:57.698Z,29.90
2022-08-05T08:17:30.193Z,30.00
2022-08-05T08:20:10.437Z,30.10
2022-08-05T08:22:44.564Z,30.10
2022-08-05T08:25:16.358Z,30.10
2022-08-05T08:27:47.871Z,30.20
2022-08-05T08:30:32.891Z,30.20
2022-08-05T08:33:14.566Z,30.30
2022-08-05T08:35:53.066Z,30.30
2022-08-05T08:38:32.227Z,30.40
2022-08-05T08:41:07.416Z,30.40
2022-08-05T08:45:25.369Z,30.40
2022-08-05T08:46:27.464Z,30.40
2022-08-05T08:49:06.296Z,30.40
2022-08-05T08:52:04.149Z,30.40
2022-08-05T08:54:34.205Z,30.40
2022-08-05T08:57:11.302Z,30.50
2022-08-05T08:59:41.942Z,30.50
2022-08-05T09:02:16.633Z,30.50
2022-08-05T09:04:58.598Z,30.50
2022-08-05T09:07:39.409Z,30.50
2022-08-05T09:10:21.527Z,30.40
2022-08-05T09:12:54.435Z,30.40
2022-08-05T09:15:23.418Z,30.50
2022-08-05T09:17:53.103Z,30.60
2022-08-05T09:20:36.729Z,30.60
2022-08-05T09:23:21.653Z,30.70
2022-08-05T09:26:01.630Z,30.60
2022-08-05T09:28:34.108Z,30.60
2022-08-05T09:32:38.525Z,30.60
2022-08-05T09:34:02.767Z,30.50
2022-08-05T09:36:54.323Z,30.50
2022-08-05T09:39:41.148Z,30.40
2022-08-05T09:42:17.299Z,30.40
2022-08-05T09:44:52.878Z,30.40
2022-08-05T09:47:26.204Z,30.50
2022-08-05T09:50:02.118Z,30.40
2022-08-05T09:52:32.882Z,30.50
2022-08-05T09:55:57.054Z,30.50
2022-08-05T09:58:00.002Z,30.50
2022-08-05T10:00:29.563Z,30.50
2022-08-05T10:02:58.641Z,30.70
2022-08-05T10:05:28.687Z,30.40
2022-08-05T10:08:10.618Z,30.40
2022-08-05T10:10:50.244Z,30.40
2022-08-05T10:13:44.176Z,30.30
2022-08-05T10:16:41.744Z,30.20
2022-08-05T10:19:23.546Z,30.20
2022-08-05T10:21:59.055Z,30.10
2022-08-05T10:24:27.006Z,30.00
2022-08-05T10:27:00.499Z,29.90
2022-08-05T10:30:40.880Z,30.00
2022-08-05T10:32:52.645Z,30.00
2022-08-05T10:35:05.266Z,30.00
2022-08-05T10:37:41.348Z,29.90
2022-08-05T10:40:43.630Z,29.90
2022-08-05T10:43:23.181Z,30.00
2022-08-05T10:46:11.862Z,29.90
2022-08-05T10:48:56.955Z,29.90
2022-08-05T10:51:28.979Z,29.90
2022-08-05T10:54:05.582Z,29.90
2022-08-05T10:56:56.058Z,29.90
2022-08-05T11:00:02.261Z,29.90
2022-08-05T11:02:38.305Z,29.80
2022-08-05T11:05:10.157Z,29.90
2022-08-05T11:08:12.908Z,30.00
2022-08-05T11:11:00.105Z,30.00
2022-08-05T11:13:57.963Z,29.90
2022-08-05T11:16:33.791Z,29.90
2022-08-05T11:20:17.625Z,29.90
2022-08-05T11:22:43.071Z,30.00
2022-08-05T11:26:04.964Z,30.10
2022-08-05T11:28:22.309Z,30.10
2022-08-05T11:30:56.027Z,30.10
2022-08-05T11:33:46.573Z,30.10
2022-08-05T11:36:34.204Z,30.10
2022-08-05T11:39:07.290Z,30.10
2022-08-05T11:42:01.296Z,30.20
2022-08-05T11:44:52.872Z,30.20
2022-08-05T11:47:49.275Z,30.20
2022-08-05T11:50:10.486Z,30.20
2022-08-05T11:52:41.796Z,30.20
2022-08-05T11:55:12.670Z,30.20
2022-08-05T11:58:10.188Z,30.10
2022-08-05T12:00:38.292Z,30.20
2022-08-05T12:03:28.406Z,30.20
2022-08-05T12:06:06.575Z,30.20
2022-08-05T12:08:49.921Z,30.30
2022-08-05T12:11:21.171Z,30.30
2022-08-05T12:14:14.978Z,30.30
2022-08-05T12:16:47.386Z,30.40
2022-08-05T12:20:25.655Z,30.50
2022-08-05T12:22:09.371Z,30.60
2022-08-05T12:24:41.341Z,30.60
2022-08-05T12:27:32.848Z,30.60
2022-08-05T12:30:09.143Z,30.50
2022-08-05T12:32:45.920Z,30.50
2022-08-05T12:35:21.593Z,30.40
2022-08-05T12:37:49.518Z,30.60
2022-08-05T12:40:26.849Z,30.50
2022-08-05T12:42:57.050Z,30.50
2022-08-05T12:45:23.972Z,30.50
2022-08-05T12:48:27.140Z,30.50
2022-08-05T12:52:09.884Z,30.70
2022-08-05T12:54:04.389Z,30.70
2022-08-05T12:56:43.208Z,30.70
2022-08-05T12:59:14.412Z,30.70
2022-08-05T13:02:04.767Z,30.70
2022-08-05T13:04:41.602Z,30.80
2022-08-05T13:07:16.162Z,30.90
2022-08-05T13:09:56.943Z,31.00
2022-08-05T13:12:27.148Z,31.00
2022-08-05T13:15:06.740Z,31.00
2022-08-05T13:17:41.973Z,30.90
2022-08-05T13:20:23.278Z,30.80
2022-08-05T13:22:53.078Z,30.90
2022-08-05T13:25:21.989Z,31.00
2022-08-05T13:28:07.940Z,31.10
2022-08-05T13:30:39.051Z,31.10
2022-08-05T13:33:06.264Z,31.10
2022-08-05T13:35:47.567Z,31.00
2022-08-05T13:38:30.624Z,31.00
2022-08-05T13:41:04.064Z,31.00
2022-08-05T13:43:45.063Z,31.10
2022-08-05T13:46:30.798Z,31.20
2022-08-05T13:49:09.912Z,31.20
2022-08-05T13:51:41.669Z,31.30
2022-08-05T13:54:15.478Z,31.30
2022-08-05T13:56:44.871Z,31.40
2022-08-05T13:59:19.613Z,31.50
2022-08-05T14:01:58.524Z,31.50
2022-08-05T14:04:51.134Z,31.50
2022-08-05T14:07:25.525Z,31.50
2022-08-05T14:10:18.810Z,31.30
2022-08-05T14:12:55.362Z,31.30
2022-08-05T14:16:08.192Z,31.20
2022-08-05T14:18:15.125Z,31.20
2022-08-05T14:20:47.940Z,31.20
2022-08-05T14:23:24.542Z,31.20
2022-08-05T14:25:58.509Z,31.40
2022-08-05T14:28:28.545Z,31.30
2022-08-05T14:30:57.446Z,31.40
2022-08-05T14:33:24.357Z,31.30
2022-08-05T14:35:52.375Z,31.20
2022-08-05T14:38:32.015Z,31.10
2022-08-05T14:41:05.984Z,31.10
2022-08-05T14:43:53.977Z,31.10
2022-08-05T14:46:28.270Z,31.20
2022-08-05T14:48:59.630Z,31.20
2022-08-05T14:51:34.935Z,31.20
2022-08-05T14:54:28.021Z,31.30
2022-08-05T14:56:51.016Z,31.30
2022-08-05T14:59:21.843Z,31.20
2022-08-05T15:01:49.924Z,31.10
2022-08-05T15:04:22.512Z,31.10
2022-08-05T15:06:53.073Z,31.00
2022-08-05T15:09:51.743Z,31.00
2022-08-05T15:12:09.459Z,31.00
2022-08-05T15:14:48.025Z,31.00
2022-08-05T15:17:45.861Z,31.00
2022-08-05T15:20:18.256Z,31.00
2022-08-05T15:22:54.322Z,31.00
2022-08-05T15:25:50.933Z,30.90
2022-08-05T15:28:14.406Z,30.80
2022-08-05T15:30:42.316Z,30.70
2022-08-05T15:33:10.810Z,30.60
2022-08-05T15:35:45.456Z,30.50
2022-08-05T15:38:34.456Z,30.50
2022-08-05T15:41:22.649Z,30.50
2022-08-05T15:43:47.349Z,30.50
2022-08-05T15:46:14.475Z,30.50
2022-08-05T15:48:52.820Z,30.50
2022-08-05T15:52:04.180Z,30.50
2022-08-05T15:54:15.286Z,30.60
2022-08-05T15:56:43.541Z,30.70
2022-08-05T15:59:11.953Z,30.80
2022-08-05T16:01:53.005Z,30.90
2022-08-05T16:04:21.090Z,31.00
2022-08-05T16:06:53.509Z,31.00
2022-08-05T16:09:22.246Z,31.10
2022-08-05T16:11:52.857Z,31.20
2022-08-05T16:14:20.868Z,31.10
2022-08-05T16:16:49.779Z,31.10
2022-08-05T16:19:25.867Z,31.00
2022-08-05T16:22:04.605Z,31.10
2022-08-05T16:24:40.407Z,31.10
2022-08-05T16:27:09.100Z,31.20
2022-08-05T16:29:37.260Z,31.20
2022-08-05T16:32:06.732Z,31.10
2022-08-05T16:34:39.267Z,31.00
2022-08-05T16:38:03.340Z,31.00
2022-08-05T16:40:05.977Z,31.10
2022-08-05T16:42:35.741Z,31.10
2022-08-05T16:45:05.877Z,31.10
2022-08-05T16:47:55.616Z,31.00
2022-08-05T16:50:25.588Z,31.00
2022-08-05T16:52:52.725Z,31.00
2022-08-05T16:55:23.215Z,31.20
2022-08-05T16:57:59.810Z,31.20
2022-08-05T17:00:34.477Z,31.20
2022-08-05T17:03:09.217Z,31.20
2022-08-05T17:05:50.196Z,31.20
2022-08-05T17:08:36.685Z,31.30
2022-08-05T17:11:08.802Z,31.10
2022-08-05T17:13:41.381Z,31.00
2022-08-05T17:16:28.091Z,30.90
2022-08-05T17:18:56.203Z,30.80
2022-08-05T17:21:23.760Z,30.80
2022-08-05T17:24:04.595Z,30.80
2022-08-05T17:26:36.407Z,30.80
2022-08-05T17:29:09.876Z,30.60
2022-08-05T17:31:41.258Z,30.60
2022-08-05T17:34:29.771Z,30.60
2022-08-05T17:36:59.415Z,30.50
2022-08-05T17:39:34.413Z,30.50
2022-08-05T17:42:18.278Z,30.40
2022-08-05T17:44:51.071Z,30.50
2022-08-05T17:47:22.889Z,30.40
2022-08-05T17:49:59.669Z,30.30
2022-08-05T17:52:32.220Z,30.30
2022-08-05T17:54:59.831Z,30.30
2022-08-05T17:57:27.711Z,30.20
2022-08-05T18:00:04.972Z,30.20
2022-08-05T18:02:34.222Z,30.10
2022-08-05T18:05:03.017Z,30.00
2022-08-05T18:07:41.301Z,30.00
2022-08-05T18:10:20.587Z,29.90
2022-08-05T18:12:49.339Z,29.90
2022-08-05T18:15:16.315Z,29.90
2022-08-05T18:18:00.312Z,29.80
2022-08-05T18:20:31.845Z,29.80
2022-08-05T18:23:09.567Z,29.70
2022-08-05T18:25:44.737Z,29.80
2022-08-05T18:28:17.699Z,29.70
2022-08-05T18:30:51.347Z,29.60
2022-08-05T18:33:23.167Z,29.60
2022-08-05T18:36:03.968Z,29.50
2022-08-05T18:38:36.294Z,29.50
2022-08-05T18:41:56.359Z,29.40
2022-08-05T18:43:52.080Z,29.30
2022-08-05T18:46:20.294Z,29.30
2022-08-05T18:48:51.867Z,29.30
2022-08-05T18:52:05.067Z,29.30
2022-08-05T18:54:28.491Z,29.30
2022-08-05T18:57:00.821Z,29.20
2022-08-05T18:59:44.279Z,29.20
2022-08-05T19:02:26.663Z,29.20
2022-08-05T19:06:05.819Z,29.10
2022-08-05T19:07:52.899Z,29.00
2022-08-05T19:10:28.508Z,29.00
2022-08-05T19:12:56.566Z,29.00
2022-08-05T19:15:58.229Z,29.00
2022-08-05T19:18:20.992Z,28.90
2022-08-05T19:20:52.345Z,29.00
2022-08-05T19:24:04.119Z,28.90
2022-08-05T19:26:08.417Z,29.00
2022-08-05T19:28:41.394Z,28.90
2022-08-05T19:31:09.443Z,28.80
2022-08-05T19:33:48.528Z,28.80
2022-08-05T19:36:25.099Z,28.80
2022-08-05T19:39:00.960Z,28.70
2022-08-05T19:41:58.124Z,28.70
2022-08-05T19:44:17.274Z,28.70
2022-08-05T19:46:45.593Z,28.70
2022-08-05T19:49:14.442Z,28.70
2022-08-05T19:52:04.664Z,28.70
2022-08-05T19:54:32.936Z,28.70
2022-08-05T19:57:06.501Z,28.70
2022-08-05T19:59:56.561Z,28.70
2022-08-05T20:02:26.271Z,28.70
2022-08-05T20:04:55.454Z,28.60
2022-08-05T20:07:46.515Z,28.60
2022-08-05T20:10:14.589Z,28.60
2022-08-05T20:12:46.083Z,28.60
2022-08-05T20:15:23.421Z,28.50
2022-08-05T20:18:09.715Z,28.50
2022-08-05T20:20:38.713Z,28.30
2022-08-05T20:23:05.784Z,28.30
2022-08-05T20:25:39.975Z,28.20
2022-08-05T20:28:13.632Z,28.10
2022-08-05T20:30:40.835Z,28.10
2022-08-05T20:33:08.828Z,28.00
2022-08-05T20:35:40.640Z,28.10
2022-08-05T20:38:20.268Z,28.10
2022-08-05T20:40:55.538Z,28.00
2022-08-05T20:43:57.631Z,27.90
2022-08-05T20:46:12.591Z,27.80
2022-08-05T20:48:45.188Z,27.80
2022-08-05T20:51:17.813Z,27.80
2022-08-05T20:53:56.226Z,27.70
2022-08-05T20:56:28.885Z,27.70
2022-08-05T20:59:00.080Z,27.60
2022-08-05T21:01:39.037Z,27.60
2022-08-05T21:04:10.474Z,27.60
2022-08-05T21:06:45.198Z,27.60
2022-08-05T21:09:14.878Z,27.60
2022-08-05T21:12:07.307Z,27.60
2022-08-05T21:14:34.809Z,27.50
2022-08-05T21:17:03.142Z,27.40
2022-08-05T21:19:46.598Z,27.30
2022-08-05T21:22:23.017Z,27.30
2022-08-05T21:24:52.408Z,27.30
2022-08-05T21:27:25.296Z,27.30
2022-08-05T21:29:55.908Z,27.30
2022-08-05T21:32:27.848Z,27.40
2022-08-05T21:35:17.484Z,27.40
2022-08-05T21:37:47.349Z,27.30
2022-08-05T21:40:20.965Z,27.30
2022-08-05T21:42:48.146Z,27.30
2022-08-05T21:45:24.646Z,27.20
2022-08-05T21:47:56.103Z,27.20
2022-08-05T21:50:25.097Z,27.20
2022-08-05T21:52:52.088Z,27.10
2022-08-05T21:55:43.046Z,26.80
2022-08-05T21:58:07.285Z,26.50
2022-08-05T22:03:10.019Z,25.30
2022-08-05T22:05:49.221Z,24.90
2022-08-05T22:08:22.381Z,24.50
2022-08-05T22:10:51.682Z,24.30
2022-08-05T22:14:34.342Z,24.20
2022-08-05T22:16:32.189Z,24.10
2022-08-05T22:18:54.344Z,24.10
2022-08-05T22:21:25.938Z,24.20
2022-08-05T22:24:13.294Z,24.30
2022-08-05T22:27:17.634Z,24.30
2022-08-05T22:29:44.623Z,24.40
2022-08-05T22:32:12.909Z,24.50
2022-08-05T22:34:45.819Z,24.60
2022-08-05T22:37:12.793Z,24.60
2022-08-05T22:39:39.842Z,24.70
2022-08-05T22:42:10.633Z,24.80
2022-08-05T22:44:42.589Z,24.80
2022-08-05T22:47:29.579Z,24.80
2022-08-05T22:50:20.105Z,24.70
2022-08-05T22:52:49.484Z,24.70
2022-08-05T22:55:19.331Z,24.60
2022-08-05T22:57:48.997Z,24.60
2022-08-05T23:00:18.346Z,24.50
2022-08-05T23:02:49.485Z,24.50
2022-08-05T23:05:17.449Z,24.50
2022-08-05T23:07:49.487Z,24.50
2022-08-05T23:10:19.942Z,24.40
2022-08-05T23:12:51.259Z,24.30
2022-08-05T23:15:21.169Z,24.30
2022-08-05T23:18:00.923Z,24.20
2022-08-05T23:20:30.224Z,24.30
2022-08-05T23:22:58.417Z,24.30
2022-08-05T23:25:52.859Z,24.30
2022-08-05T23:28:12.806Z,24.10
2022-08-05T23:30:43.844Z,24.10
2022-08-05T23:33:25.736Z,24.10
2022-08-05T23:36:06.884Z,24.20
2022-08-05T23:38:37.355Z,24.20
2022-08-05T23:41:04.300Z,24.30
2022-08-05T23:43:49.743Z,24.20
2022-08-05T23:46:21.408Z,24.20
2022-08-05T23:48:59.590Z,24.20
2022-08-05T23:51:55.028Z,24.20
2022-08-05T23:54:29.971Z,24.20
2022-08-05T23:57:03.783Z,24.10
